Time;durP1;ratioP1;P1;durP2;ratioP2;P2;SDS_P1;SDS_P2;PMS_P1;PMS_P2;Temp;Humidity;BMP_temperature;BMP_pressure;BME280_temperature;BME280_humidity;BME280_pressure;Samples;Min_cycle;Max_cycle;Signal;HPM_P1;HPM_P2
2022/10/10 00:00:37;;;;;;;7.07;2.92;;;8.10;99.90;;;;;;6241639;22;20019;-83
2022/10/10 00:03:03;;;;;;;7.38;3.50;;;8.10;99.90;;;;;;6241583;22;20016;-83
2022/10/10 00:05:29;;;;;;;9.52;3.47;;;8.10;99.90;;;;;;6241421;22;20393;-83
2022/10/10 00:07:55;;;;;;;7.53;3.10;;;8.10;99.90;;;;;;6241353;23;20012;-83
2022/10/10 00:10:20;;;;;;;8.43;3.75;;;8.10;99.90;;;;;;6240734;23;20354;-83
2022/10/10 00:12:46;;;;;;;7.32;3.67;;;8.00;99.90;;;;;;6239399;23;20086;-83
2022/10/10 00:15:13;;;;;;;7.65;3.05;;;8.00;99.90;;;;;;6241113;23;20016;-83
2022/10/10 00:17:42;;;;;;;6.63;3.17;;;8.00;99.90;;;;;;6239520;23;20046;-83
2022/10/10 00:20:08;;;;;;;7.65;3.35;;;8.00;99.90;;;;;;6241366;22;20315;-83
2022/10/10 00:22:34;;;;;;;6.03;3.45;;;7.90;99.90;;;;;;6241124;22;20523;-83
2022/10/10 00:24:59;;;;;;;6.05;3.22;;;7.90;99.90;;;;;;6240459;23;20012;-83
2022/10/10 00:27:25;;;;;;;7.38;2.95;;;7.90;99.90;;;;;;6240582;23;20076;-83
2022/10/10 00:29:51;;;;;;;5.63;2.92;;;7.90;99.90;;;;;;6239580;23;20012;-83
2022/10/10 00:32:16;;;;;;;6.53;3.47;;;7.90;99.90;;;;;;6239340;23;20087;-83
2022/10/10 00:34:42;;;;;;;7.80;3.45;;;7.90;99.90;;;;;;6240675;23;20082;-83
2022/10/10 00:37:07;;;;;;;6.63;3.38;;;7.80;99.90;;;;;;6239615;23;20023;-83
2022/10/10 00:39:33;;;;;;;6.63;2.88;;;7.80;99.90;;;;;;6240316;22;20020;-83
2022/10/10 00:41:59;;;;;;;7.72;3.15;;;7.80;99.90;;;;;;6241334;23;20143;-83
2022/10/10 00:44:26;;;;;;;7.00;3.20;;;7.80;99.90;;;;;;6239096;23;20020;-83
2022/10/10 00:46:52;;;;;;;6.78;2.80;;;7.70;99.90;;;;;;6239244;23;20509;-83
2022/10/10 00:49:22;;;;;;;6.43;2.88;;;7.70;99.90;;;;;;6241127;23;20044;-83
2022/10/10 00:51:52;;;;;;;5.25;3.50;;;7.70;99.90;;;;;;6241366;22;20433;-83
2022/10/10 00:54:20;;;;;;;5.55;3.13;;;7.70;99.90;;;;;;6239213;23;20083;-83
2022/10/10 00:56:54;;;;;;;5.97;3.28;;;7.70;99.90;;;;;;6240637;22;20012;-83
2022/10/10 00:59:20;;;;;;;8.75;3.28;;;7.60;99.90;;;;;;6239714;23;20015;-83
2022/10/10 01:01:47;;;;;;;8.13;3.58;;;7.60;99.90;;;;;;6241243;22;20008;-83
2022/10/10 01:04:37;;;;;;;8.07;3.33;;;7.90;99.90;;;;;;6241183;22;20082;-83
2022/10/10 01:07:06;;;;;;;6.40;3.13;;;7.60;99.90;;;;;;6241204;22;20015;-83
2022/10/10 01:09:33;;;;;;;7.68;3.47;;;7.60;99.90;;;;;;6238540;23;20012;-83
2022/10/10 01:12:30;;;;;;;6.47;3.15;;;7.60;99.90;;;;;;6240785;22;20040;-82
2022/10/10 01:15:25;;;;;;;6.88;3.40;;;7.60;99.90;;;;;;6239297;23;20069;-83
2022/10/10 01:18:09;;;;;;;;;;;7.60;99.90;;;;;;6241352;22;20012;-83
2022/10/10 01:20:35;;;;;;;8.57;4.13;;;7.60;99.90;;;;;;6241064;23;19922;-83
2022/10/10 01:23:23;;;;;;;6.75;3.95;;;7.60;99.90;;;;;;6240922;23;20008;-83
2022/10/10 01:26:14;;;;;;;6.47;3.42;;;7.70;99.90;;;;;;6240956;23;20139;-83
2022/10/10 01:28:58;;;;;;;7.90;3.40;;;7.60;99.90;;;;;;6242432;22;20023;-83
2022/10/10 01:31:25;;;;;;;10.15;3.63;;;7.60;99.90;;;;;;6241520;23;20012;-83
2022/10/10 01:34:03;;;;;;;8.57;3.65;;;7.60;99.90;;;;;;6242769;22;20013;-83
2022/10/10 01:36:33;;;;;;;5.80;3.45;;;7.70;99.90;;;;;;6241159;23;20444;-83
2022/10/10 01:39:21;;;;;;;11.00;3.97;;;7.60;99.90;;;;;;6242271;22;20333;-83
2022/10/10 01:41:59;;;;;;;9.05;3.80;;;7.70;99.90;;;;;;6182287;22;20087;-83
2022/10/10 01:44:24;;;;;;;7.40;3.55;;;7.70;99.90;;;;;;6242825;22;20019;-83
2022/10/10 01:46:50;;;;;;;7.68;3.55;;;7.70;99.90;;;;;;6242549;23;20083;-83
2022/10/10 01:49:16;;;;;;;8.57;3.75;;;7.70;99.90;;;;;;6242508;23;20016;-83
2022/10/10 01:52:09;;;;;;;8.00;3.47;;;7.90;99.90;;;;;;6239886;23;20319;-83
2022/10/10 01:54:41;;;;;;;6.97;3.35;;;7.70;99.90;;;;;;6240306;22;20091;-83
2022/10/10 01:57:19;;;;;;;10.07;3.85;;;7.70;99.90;;;;;;6240320;23;20024;-82
2022/10/10 02:00:10;;;;;;;5.57;3.90;;;7.70;99.90;;;;;;6240149;23;20024;-83
2022/10/10 02:02:57;;;;;;;6.53;3.97;;;7.70;99.90;;;;;;6240224;22;20094;-83
2022/10/10 02:05:38;;;;;;;10.07;4.20;;;7.70;99.90;;;;;;6240644;23;20798;-83
2022/10/10 02:08:26;;;;;;;8.85;4.03;;;7.70;99.90;;;;;;6239684;23;20125;-82
2022/10/10 02:10:57;;;;;;;8.13;4.07;;;7.70;99.90;;;;;;6241063;22;20012;-82
2022/10/10 02:13:29;;;;;;;10.18;3.63;;;7.70;99.90;;;;;;6242268;22;20004;-82
2022/10/10 02:15:57;;;;;;;9.68;4.10;;;7.80;99.90;;;;;;6242059;22;20519;-82
2022/10/10 02:18:28;;;;;;;8.80;3.95;;;7.80;99.90;;;;;;6242683;22;20051;-82
2022/10/10 02:20:54;;;;;;;5.70;3.63;;;7.70;99.90;;;;;;6239869;23;20016;-82
2022/10/10 02:23:21;;;;;;;10.75;4.00;;;7.70;99.90;;;;;;6242066;22;20461;-82
2022/10/10 02:25:51;;;;;;;8.30;3.80;;;7.70;99.90;;;;;;6240793;23;20027;-82
2022/10/10 02:28:32;;;;;;;6.78;3.97;;;7.70;99.90;;;;;;6242343;22;20019;-82
2022/10/10 02:31:03;;;;;;;9.02;3.95;;;7.70;99.90;;;;;;6240476;23;20020;-82
2022/10/10 02:33:55;;;;;;;7.28;4.35;;;7.70;99.90;;;;;;6242214;22;20203;-82
2022/10/10 02:36:23;;;;;;;7.80;4.65;;;7.70;99.90;;;;;;6241684;22;20012;-82
2022/10/10 02:38:51;;;;;;;8.95;4.43;;;7.70;99.90;;;;;;6242078;22;20058;-82
2022/10/10 02:41:18;;;;;;;10.52;4.90;;;7.70;99.90;;;;;;6241889;22;20008;-82
2022/10/10 02:43:44;;;;;;;8.43;4.72;;;7.70;99.90;;;;;;6242433;22;20012;-82
2022/10/10 02:46:12;;;;;;;9.30;3.88;;;7.70;99.90;;;;;;6242083;23;20158;-82
2022/10/10 02:48:39;;;;;;;10.82;4.22;;;7.70;99.90;;;;;;6240312;23;20012;-82
2022/10/10 02:51:05;;;;;;;8.65;4.40;;;8.10;99.90;;;;;;6239654;23;20142;-82
2022/10/10 02:53:30;;;;;;;8.45;4.53;;;7.80;99.90;;;;;;6242060;22;20016;-82
2022/10/10 02:55:56;;;;;;;8.13;3.92;;;7.80;99.90;;;;;;6241506;23;20091;-82
2022/10/10 02:58:22;;;;;;;9.30;4.85;;;7.80;99.90;;;;;;6242206;23;20017;-82
2022/10/10 03:00:47;;;;;;;8.50;4.25;;;7.70;99.90;;;;;;6241718;23;20113;-82
2022/10/10 03:03:13;;;;;;;10.57;4.60;;;7.70;99.90;;;;;;6241904;23;20048;-82
2022/10/10 03:05:39;;;;;;;8.55;4.20;;;7.70;99.90;;;;;;6241450;23;20019;-82
2022/10/10 03:08:04;;;;;;;8.85;4.80;;;7.70;99.90;;;;;;6241776;23;20257;-82
2022/10/10 03:10:30;;;;;;;7.72;4.72;;;7.70;99.90;;;;;;6241704;23;20082;-82
2022/10/10 03:12:55;;;;;;;7.13;4.60;;;7.70;99.90;;;;;;6242126;23;20020;-82
2022/10/10 03:15:21;;;;;;;11.02;5.07;;;7.70;99.90;;;;;;6241751;23;20015;-82
2022/10/10 03:17:46;;;;;;;8.70;4.63;;;7.70;99.90;;;;;;6241776;23;20083;-82
2022/10/10 03:20:12;;;;;;;7.93;4.95;;;7.70;99.90;;;;;;6241196;23;20428;-82
2022/10/10 03:22:38;;;;;;;8.68;4.88;;;7.70;99.90;;;;;;6239775;23;20117;-82
2022/10/10 03:25:04;;;;;;;11.85;5.93;;;7.70;99.90;;;;;;6241625;23;20026;-82
2022/10/10 03:27:30;;;;;;;8.45;4.82;;;7.70;99.90;;;;;;6241624;22;20039;-82
2022/10/10 03:29:55;;;;;;;10.95;5.07;;;7.70;99.90;;;;;;6241582;23;20012;-82
2022/10/10 03:32:21;;;;;;;9.95;4.90;;;7.70;99.90;;;;;;6241465;23;20084;-82
2022/10/10 03:34:46;;;;;;;11.00;4.93;;;7.70;99.90;;;;;;6240896;23;20055;-82
2022/10/10 03:37:12;;;;;;;10.00;4.93;;;7.70;99.90;;;;;;6242099;23;20051;-82
2022/10/10 03:39:38;;;;;;;10.50;5.80;;;7.70;99.90;;;;;;6242008;23;20020;-82
2022/10/10 03:42:03;;;;;;;10.88;4.97;;;7.70;99.90;;;;;;6241379;23;20020;-82
2022/10/10 03:44:29;;;;;;;7.85;4.60;;;7.70;99.90;;;;;;6241286;23;20012;-82
2022/10/10 03:46:54;;;;;;;8.82;4.82;;;7.70;99.90;;;;;;6239951;23;20520;-82
2022/10/10 03:49:20;;;;;;;7.88;5.00;;;7.70;99.90;;;;;;6240898;23;20087;-82
2022/10/10 03:51:46;;;;;;;9.73;5.03;;;7.70;99.90;;;;;;6241416;23;20008;-82
2022/10/10 03:54:11;;;;;;;8.80;4.93;;;7.80;99.90;;;;;;6241481;23;20078;-82
2022/10/10 03:56:37;;;;;;;10.35;5.43;;;7.80;99.90;;;;;;6241218;22;20023;-82
2022/10/10 03:59:05;;;;;;;10.38;5.47;;;7.80;99.90;;;;;;6239718;23;20019;-82
2022/10/10 04:01:31;;;;;;;8.90;5.22;;;7.80;99.90;;;;;;6241472;22;20012;-82
2022/10/10 04:03:56;;;;;;;9.25;5.07;;;8.00;99.90;;;;;;6240703;22;20101;-82
2022/10/10 04:06:22;;;;;;;10.68;5.30;;;7.80;99.90;;;;;;6239752;23;20680;-82
2022/10/10 04:08:47;;;;;;;9.13;5.90;;;7.80;99.90;;;;;;6241545;23;20014;-81
2022/10/10 04:11:13;;;;;;;10.05;5.20;;;7.80;99.90;;;;;;6241556;23;20464;-81
2022/10/10 04:13:39;;;;;;;9.40;5.65;;;7.80;99.90;;;;;;6241525;22;20032;-81
2022/10/10 04:16:04;;;;;;;12.77;6.43;;;7.80;99.90;;;;;;6240828;23;20019;-81
2022/10/10 04:18:30;;;;;;;9.93;5.15;;;7.80;99.90;;;;;;6240715;22;20059;-82
2022/10/10 04:20:56;;;;;;;9.60;5.40;;;7.70;99.90;;;;;;6239578;23;20342;-82
2022/10/10 04:23:22;;;;;;;10.40;5.40;;;7.70;99.90;;;;;;6241413;23;20011;-82
2022/10/10 04:25:52;;;;;;;11.23;6.07;;;7.70;99.90;;;;;;6240636;23;20446;-82
2022/10/10 04:28:17;;;;;;;11.45;5.45;;;7.70;99.90;;;;;;6239411;23;20330;-81
2022/10/10 04:30:43;;;;;;;7.72;5.15;;;7.70;99.90;;;;;;6238491;23;20020;-81
2022/10/10 04:33:09;;;;;;;11.02;5.13;;;7.70;99.90;;;;;;6241413;22;20004;-81
2022/10/10 04:35:35;;;;;;;8.98;5.28;;;7.60;99.90;;;;;;6239584;23;20087;-81
2022/10/10 04:38:01;;;;;;;12.02;6.32;;;7.70;99.90;;;;;;6241362;23;20040;-81
2022/10/10 04:40:26;;;;;;;10.02;5.63;;;7.60;99.90;;;;;;6241121;23;20039;-81
2022/10/10 04:42:53;;;;;;;11.98;5.95;;;7.60;99.90;;;;;;6241476;23;20445;-81
2022/10/10 04:45:18;;;;;;;11.02;5.50;;;7.60;99.90;;;;;;6238705;22;20023;-81
2022/10/10 04:47:44;;;;;;;11.57;6.10;;;7.60;99.90;;;;;;6240050;23;20012;-81
2022/10/10 04:50:09;;;;;;;9.10;5.43;;;7.60;99.90;;;;;;6241155;23;20012;-82
2022/10/10 04:52:35;;;;;;;15.93;5.65;;;7.60;99.90;;;;;;6238147;23;20013;-82
2022/10/10 04:55:01;;;;;;;10.20;5.60;;;7.50;99.90;;;;;;6240819;23;20019;-81
2022/10/10 04:57:26;;;;;;;10.95;5.75;;;7.50;99.90;;;;;;6238781;23;20070;-81
2022/10/10 04:59:52;;;;;;;11.68;6.18;;;7.50;99.90;;;;;;6239754;23;20079;-82
2022/10/10 05:02:17;;;;;;;11.20;5.78;;;7.40;99.90;;;;;;6242204;23;20058;-82
2022/10/10 05:04:43;;;;;;;9.15;5.43;;;7.40;99.90;;;;;;6242396;23;20602;-82
2022/10/10 05:07:09;;;;;;;12.95;6.38;;;7.40;99.90;;;;;;6243334;23;20094;-82
2022/10/10 05:09:34;;;;;;;11.88;7.10;;;7.60;99.90;;;;;;6242003;23;20719;-82
2022/10/10 05:12:00;;;;;;;12.40;6.13;;;7.40;99.90;;;;;;6243363;23;20019;-82
2022/10/10 05:14:26;;;;;;;11.80;6.72;;;7.40;99.90;;;;;;6240957;23;20079;-82
2022/10/10 05:16:52;;;;;;;12.10;7.65;;;7.40;99.90;;;;;;6241405;23;20024;-83
2022/10/10 05:19:17;;;;;;;11.32;7.10;;;7.40;99.90;;;;;;6243798;23;20617;-82
2022/10/10 05:21:43;;;;;;;14.68;8.40;;;7.30;99.90;;;;;;6243610;23;20020;-82
2022/10/10 05:24:08;;;;;;;11.15;6.57;;;7.40;99.90;;;;;;6243101;23;20087;-82
2022/10/10 05:26:34;;;;;;;11.82;7.78;;;7.30;99.90;;;;;;6243286;23;20016;-83
2022/10/10 05:29:00;;;;;;;11.43;6.70;;;7.30;99.90;;;;;;6240681;23;20016;-81
2022/10/10 05:31:26;;;;;;;12.00;8.65;;;7.30;99.90;;;;;;6242613;22;20079;-82
2022/10/10 05:33:52;;;;;;;11.57;8.27;;;7.30;99.90;;;;;;6240323;23;20047;-82
2022/10/10 05:36:17;;;;;;;11.82;7.38;;;7.50;99.90;;;;;;6240703;23;20699;-82
2022/10/10 05:38:43;;;;;;;12.73;7.65;;;7.30;99.90;;;;;;6242610;23;20143;-82
2022/10/10 05:41:10;;;;;;;11.63;7.22;;;7.30;99.90;;;;;;6241116;23;20661;-82
2022/10/10 05:43:35;;;;;;;13.80;7.38;;;7.30;99.90;;;;;;6242237;22;20016;-83
2022/10/10 05:46:01;;;;;;;11.77;7.20;;;7.30;99.90;;;;;;6243597;23;20012;-81
2022/10/10 05:48:27;;;;;;;13.30;7.47;;;7.30;99.90;;;;;;6242628;23;20016;-81
2022/10/10 05:51:00;;;;;;;12.15;6.82;;;7.30;99.90;;;;;;6240653;23;20020;-82
2022/10/10 05:53:27;;;;;;;12.93;6.70;;;7.30;99.90;;;;;;6242887;22;20008;-81
2022/10/10 05:55:52;;;;;;;14.68;7.38;;;7.30;99.90;;;;;;6241993;22;20048;-80
2022/10/10 05:58:18;;;;;;;12.70;6.63;;;7.30;99.90;;;;;;6242506;23;20023;-82
2022/10/10 06:00:45;;;;;;;16.30;7.75;;;7.30;99.90;;;;;;6242467;22;20012;-82
2022/10/10 06:03:15;;;;;;;11.07;7.05;;;7.30;99.90;;;;;;6242829;22;20016;-83
2022/10/10 06:05:44;;;;;;;11.40;7.90;;;7.30;99.90;;;;;;6242494;22;20039;-82
2022/10/10 06:08:10;;;;;;;17.70;7.55;;;7.30;99.90;;;;;;6242399;22;20500;-83
2022/10/10 06:10:39;;;;;;;11.75;7.30;;;7.30;99.90;;;;;;6240739;23;20015;-85
2022/10/10 06:13:04;;;;;;;14.43;7.10;;;7.30;99.90;;;;;;6241562;23;20556;-83
2022/10/10 06:15:30;;;;;;;12.90;7.43;;;7.30;99.90;;;;;;6241942;23;20051;-85
2022/10/10 06:17:56;;;;;;;10.57;6.93;;;7.30;99.90;;;;;;6215460;23;20015;-84
2022/10/10 06:20:22;;;;;;;12.05;6.93;;;7.30;99.90;;;;;;6243002;22;20035;-82
2022/10/10 06:22:47;;;;;;;13.20;7.43;;;7.30;99.90;;;;;;6240626;23;20008;-83
2022/10/10 06:25:13;;;;;;;14.77;7.40;;;7.30;99.90;;;;;;6242769;23;20099;-83
2022/10/10 06:27:39;;;;;;;11.35;7.75;;;7.30;99.90;;;;;;6241956;23;20015;-83
2022/10/10 06:30:05;;;;;;;12.23;7.28;;;7.30;99.90;;;;;;6242709;23;20008;-83
2022/10/10 06:32:31;;;;;;;12.73;7.00;;;7.30;99.90;;;;;;6241533;23;20016;-84
2022/10/10 06:34:56;;;;;;;10.05;6.15;;;7.40;99.90;;;;;;6242366;23;20020;-84
2022/10/10 06:37:22;;;;;;;15.38;7.65;;;7.30;99.90;;;;;;6240653;23;20087;-84
2022/10/10 06:39:47;;;;;;;13.65;7.07;;;7.30;99.90;;;;;;6242186;23;20019;-84
2022/10/10 06:42:13;;;;;;;15.77;7.47;;;7.30;99.90;;;;;;6242325;23;20501;-86
2022/10/10 06:44:38;;;;;;;13.15;7.93;;;7.30;99.90;;;;;;6243526;23;20016;-87
2022/10/10 06:47:04;;;;;;;12.05;7.72;;;7.30;99.90;;;;;;6240705;23;20016;-82
2022/10/10 06:49:30;;;;;;;10.05;6.65;;;7.40;99.90;;;;;;6215748;23;20012;-83
2022/10/10 06:51:56;;;;;;;11.48;6.47;;;7.40;99.90;;;;;;6241033;23;20019;-82
2022/10/10 06:54:21;;;;;;;12.73;7.40;;;7.40;99.90;;;;;;6241890;23;20089;-82
2022/10/10 06:56:47;;;;;;;14.02;7.60;;;7.40;99.90;;;;;;6241596;23;20091;-82
2022/10/10 06:59:13;;;;;;;12.30;7.30;;;7.50;99.90;;;;;;6242549;22;20016;-82
2022/10/10 07:01:38;;;;;;;10.65;6.43;;;6.90;99.90;;;;;;6242372;23;20107;-82
2022/10/10 07:04:04;;;;;;;15.00;7.68;;;7.60;99.90;;;;;;6240823;23;20018;-82
2022/10/10 07:06:30;;;;;;;14.85;7.75;;;7.60;99.90;;;;;;6242085;22;20334;-82
2022/10/10 07:08:57;;;;;;;13.07;7.38;;;7.80;99.90;;;;;;6242638;22;20020;-82
2022/10/10 07:11:23;;;;;;;17.38;7.65;;;7.70;99.90;;;;;;6240144;23;20012;-82
2022/10/10 07:13:51;;;;;;;12.60;7.45;;;7.80;99.90;;;;;;6242551;22;20083;-81
2022/10/10 07:16:17;;;;;;;13.50;7.88;;;7.80;99.90;;;;;;6240520;23;20016;-81
2022/10/10 07:18:42;;;;;;;12.43;7.15;;;7.90;99.90;;;;;;6240903;23;20083;-82
2022/10/10 07:21:09;;;;;;;11.02;7.07;;;8.00;99.90;;;;;;6242260;23;20039;-81
2022/10/10 07:23:35;;;;;;;13.80;7.93;;;8.50;99.90;;;;;;6241609;22;20077;-82
2022/10/10 07:26:05;;;;;;;11.55;7.63;;;8.20;99.90;;;;;;6241887;22;20071;-82
2022/10/10 07:28:31;;;;;;;13.35;7.32;;;8.30;99.90;;;;;;6242144;22;20004;-82
2022/10/10 07:31:02;;;;;;;14.60;8.23;;;8.70;99.90;;;;;;6242649;23;20452;-82
2022/10/10 07:33:37;;;;;;;13.75;7.57;;;8.40;99.90;;;;;;6242466;22;20012;-82
2022/10/10 07:36:03;;;;;;;13.25;7.22;;;8.40;99.90;;;;;;6242047;22;20015;-82
2022/10/10 07:38:29;;;;;;;11.32;7.43;;;8.50;99.90;;;;;;6241745;22;20066;-82
2022/10/10 07:40:55;;;;;;;15.07;7.68;;;8.50;99.90;;;;;;6241187;22;20020;-82
2022/10/10 07:43:21;;;;;;;13.25;7.82;;;8.50;99.90;;;;;;6242519;23;20009;-82
2022/10/10 07:45:47;;;;;;;15.00;7.65;;;8.60;99.90;;;;;;6239974;23;20016;-82
2022/10/10 07:48:13;;;;;;;10.65;6.70;;;8.60;99.90;;;;;;6241911;23;20008;-82
2022/10/10 07:50:43;;;;;;;14.05;7.80;;;8.60;99.90;;;;;;6242132;23;20020;-82
2022/10/10 07:53:09;;;;;;;14.05;7.35;;;8.70;99.90;;;;;;6239803;23;20085;-82
2022/10/10 07:55:39;;;;;;;12.93;8.38;;;8.70;99.90;;;;;;6241113;22;20016;-82
2022/10/10 07:58:05;;;;;;;16.15;7.97;;;8.70;99.90;;;;;;6241921;22;20055;-82
2022/10/10 08:00:32;;;;;;;13.70;7.00;;;8.80;99.90;;;;;;6241914;23;20016;-82
2022/10/10 08:02:57;;;;;;;10.73;7.45;;;8.80;99.90;;;;;;6241962;22;20066;-82
2022/10/10 08:05:23;;;;;;;13.38;7.88;;;8.90;99.90;;;;;;6239578;23;20056;-82
2022/10/10 08:07:49;;;;;;;13.10;7.75;;;9.00;99.90;;;;;;6241581;23;20012;-82
2022/10/10 08:10:14;;;;;;;13.60;7.65;;;9.10;99.90;;;;;;6241446;22;20012;-82
2022/10/10 08:12:40;;;;;;;13.52;7.68;;;9.10;99.90;;;;;;6241580;23;20016;-82
2022/10/10 08:15:06;;;;;;;12.90;7.82;;;9.20;99.90;;;;;;6240247;23;20095;-82
2022/10/10 08:17:32;;;;;;;13.85;7.95;;;9.30;99.90;;;;;;6240612;23;20020;-82
2022/10/10 08:19:58;;;;;;;12.52;7.38;;;9.40;99.90;;;;;;6239926;23;20016;-82
2022/10/10 08:22:23;;;;;;;15.20;8.15;;;9.50;99.90;;;;;;6241643;23;20019;-82
2022/10/10 08:24:49;;;;;;;13.13;7.80;;;9.60;99.90;;;;;;6241097;23;20337;-82
2022/10/10 08:27:16;;;;;;;14.95;8.10;;;9.60;99.90;;;;;;6239844;23;20012;-82
2022/10/10 08:29:42;;;;;;;14.18;7.88;;;9.70;99.90;;;;;;6241373;22;20019;-82
2022/10/10 08:32:08;;;;;;;15.40;8.02;;;9.80;99.90;;;;;;6240540;23;20016;-82
2022/10/10 08:34:34;;;;;;;12.02;8.15;;;9.90;99.90;;;;;;6239930;23;20012;-82
2022/10/10 08:36:59;;;;;;;14.82;7.70;;;10.00;99.90;;;;;;6242703;23;20016;-82
2022/10/10 08:39:25;;;;;;;13.68;7.75;;;10.10;99.90;;;;;;6243641;23;20031;-81
2022/10/10 08:41:55;;;;;;;10.70;7.85;;;10.20;99.90;;;;;;6243786;23;20012;-80
2022/10/10 08:44:43;;;;;;;12.63;7.40;;;10.30;99.90;;;;;;6243888;22;20023;-82
2022/10/10 08:47:11;;;;;;;11.27;7.50;;;10.40;99.90;;;;;;6243980;22;20112;-82
2022/10/10 08:49:57;;;;;;;13.70;7.13;;;10.50;99.90;;;;;;6243984;22;20077;-82
2022/10/10 08:52:39;;;;;;;13.38;8.43;;;10.60;99.90;;;;;;6241966;23;20023;-81
2022/10/10 08:55:13;;;;;;;16.65;8.20;;;10.60;99.90;;;;;;6241443;22;20081;-81
2022/10/10 08:57:46;;;;;;;11.45;7.45;;;10.60;99.90;;;;;;6242052;23;20027;-86
2022/10/10 09:00:16;;;;;;;16.08;7.80;;;10.70;99.90;;;;;;6241943;23;20012;-84
2022/10/10 09:02:49;;;;;;;12.73;8.00;;;10.80;99.90;;;;;;6242126;23;20008;-85
2022/10/10 09:05:29;;;;;;;15.93;7.72;;;10.90;99.90;;;;;;6242172;23;20070;-81
2022/10/10 09:08:21;;;;;;;13.23;7.38;;;11.00;99.90;;;;;;6215775;23;20051;-83
2022/10/10 09:11:07;;;;;;;12.77;7.70;;;11.20;99.90;;;;;;6241614;23;20043;-82
2022/10/10 09:13:42;;;;;;;14.00;7.75;;;11.30;99.90;;;;;;6243196;22;20441;-83
2022/10/10 09:16:52;;;;;;;15.45;7.72;;;11.40;99.90;;;;;;6244197;22;20012;-83
2022/10/10 09:19:49;;;;;;;15.80;6.95;;;11.50;99.90;;;;;;6243933;22;20338;-83
2022/10/10 09:22:22;;;;;;;16.13;7.40;;;11.60;99.90;;;;;;6243166;23;20083;-83
2022/10/10 09:24:57;;;;;;;12.32;7.45;;;11.90;99.90;;;;;;6242851;22;20020;-83
2022/10/10 09:27:31;;;;;;;13.52;7.95;;;12.00;99.90;;;;;;6241258;23;20024;-83
2022/10/10 09:30:06;;;;;;;12.57;7.45;;;12.00;99.90;;;;;;6241868;23;20012;-82
2022/10/10 09:32:57;;;;;;;12.23;7.88;;;12.20;99.90;;;;;;6241793;23;20016;-83
2022/10/10 09:35:29;;;;;;;12.25;7.05;;;12.40;99.90;;;;;;6241726;23;20020;-83
2022/10/10 09:38:12;;;;;;;11.60;7.15;;;12.60;99.90;;;;;;6243617;22;20016;-83
2022/10/10 09:40:45;;;;;;;15.32;7.78;;;12.80;99.90;;;;;;6240937;23;20451;-85
2022/10/10 09:43:17;;;;;;;11.25;7.18;;;12.90;99.90;;;;;;6241529;23;20467;-84
2022/10/10 09:45:55;;;;;;;12.18;6.93;;;13.10;99.90;;;;;;6240840;23;20694;-83
2022/10/10 09:48:28;;;;;;;12.45;7.72;;;13.30;99.90;;;;;;6242894;22;20012;-83
2022/10/10 09:50:53;;;;;;;12.93;6.63;;;13.40;99.90;;;;;;6242000;22;20306;-83
2022/10/10 09:53:19;;;;;;;15.75;7.53;;;13.60;99.90;;;;;;6241022;23;20434;-83
2022/10/10 09:55:46;;;;;;;14.15;7.38;;;13.60;99.90;;;;;;6240464;22;20019;-83
2022/10/10 09:58:30;;;;;;;14.23;6.80;;;13.70;99.90;;;;;;6243490;22;20020;-85
2022/10/10 10:01:09;;;;;;;13.18;7.22;;;13.70;99.90;;;;;;6241275;23;20031;-83
2022/10/10 10:03:34;;;;;;;13.93;7.40;;;13.70;99.90;;;;;;6242678;23;20627;-83
2022/10/10 10:06:01;;;;;;;12.70;6.88;;;13.70;99.90;;;;;;6240453;23;20012;-85
2022/10/10 10:08:32;;;;;;;14.50;6.93;;;13.70;99.90;;;;;;6240017;23;20448;-84
2022/10/10 10:10:58;;;;;;;11.82;7.50;;;13.70;99.90;;;;;;6242562;22;20015;-84
2022/10/10 10:13:31;;;;;;;12.93;7.43;;;13.90;99.90;;;;;;6242096;22;20469;-83
2022/10/10 10:16:07;;;;;;;11.98;7.65;;;13.80;99.90;;;;;;6240627;23;20314;-84
2022/10/10 10:18:45;;;;;;;9.48;6.63;;;13.80;99.90;;;;;;6243037;22;20090;-84
2022/10/10 10:21:22;;;;;;;10.70;6.55;;;13.90;99.90;;;;;;6241077;23;20314;-84
2022/10/10 10:23:57;;;;;;;12.02;7.13;;;13.90;99.90;;;;;;6241137;23;20337;-84
2022/10/10 10:26:46;;;;;;;11.07;6.55;;;14.00;99.90;;;;;;6240397;23;20012;-84
2022/10/10 10:29:26;;;;;;;13.05;7.55;;;14.20;99.90;;;;;;6239698;23;20023;-84
2022/10/10 10:32:15;;;;;;;12.23;6.65;;;14.30;99.90;;;;;;6240597;23;20019;-84
2022/10/10 10:35:18;;;;;;;10.93;6.97;;;14.50;99.90;;;;;;6240079;23;20012;-84
2022/10/10 10:37:55;;;;;;;8.90;6.50;;;14.70;99.90;;;;;;6194584;23;20085;-84
2022/10/10 10:40:32;;;;;;;12.00;6.10;;;14.90;99.90;;;;;;6241122;23;20008;-84
2022/10/10 10:43:24;;;;;;;10.27;6.55;;;15.10;99.90;;;;;;6214746;23;20107;-84
2022/10/10 10:46:22;;;;;;;8.60;5.05;;;15.40;99.90;;;;;;6240488;23;20024;-84
2022/10/10 10:49:00;;;;;;;10.98;5.40;;;15.50;99.90;;;;;;6200045;22;20035;-84
2022/10/10 10:51:28;;;;;;;9.93;5.10;;;15.60;99.90;;;;;;6241973;22;20055;-84
2022/10/10 10:54:02;;;;;;;13.98;5.50;;;15.70;99.90;;;;;;6240194;23;20058;-84
2022/10/10 10:56:48;;;;;;;9.00;5.27;;;15.80;99.90;;;;;;6241453;22;20445;-83
2022/10/10 10:59:41;;;;;;;10.85;5.93;;;15.90;99.90;;;;;;6241809;23;20027;-83
2022/10/10 11:02:06;;;;;;;10.25;5.53;;;15.90;99.90;;;;;;6242380;23;20074;-84
2022/10/10 11:05:00;;;;;;;9.68;5.53;;;15.90;99.90;;;;;;6241636;23;20020;-84
2022/10/10 11:07:36;;;;;;;8.23;4.97;;;15.90;99.90;;;;;;6240288;23;20019;-84
2022/10/10 11:10:21;;;;;;;9.35;5.20;;;15.90;99.90;;;;;;6242232;22;20012;-83
2022/10/10 11:13:22;;;;;;;9.65;5.15;;;15.90;99.90;;;;;;6240136;23;20019;-84
2022/10/10 11:16:21;;;;;;;9.05;4.80;;;16.00;99.90;;;;;;6239686;23;20091;-83
2022/10/10 11:19:13;;;;;;;9.57;5.50;;;16.00;99.90;;;;;;6239433;23;20572;-83
2022/10/10 11:22:05;;;;;;;10.23;5.30;;;16.00;99.90;;;;;;6241754;22;20372;-84
2022/10/10 11:24:53;;;;;;;10.27;5.30;;;16.20;99.90;;;;;;6241701;22;20043;-84
2022/10/10 11:27:29;;;;;;;16.70;5.45;;;15.80;99.90;;;;;;6240425;23;20100;-84
2022/10/10 11:30:04;;;;;;;12.43;5.30;;;15.70;99.90;;;;;;6241844;22;20008;-84
2022/10/10 11:32:42;;;;;;;8.52;4.82;;;15.60;99.90;;;;;;6239388;23;20054;-84
2022/10/10 11:35:22;;;;;;;9.23;4.85;;;15.60;99.90;;;;;;6242023;22;20342;-84
2022/10/10 11:38:04;;;;;;;9.70;4.78;;;15.40;99.90;;;;;;6242156;23;20012;-84
2022/10/10 11:40:49;;;;;;;9.73;5.10;;;15.30;99.90;;;;;;6239953;23;20040;-84
2022/10/10 11:43:23;;;;;;;7.95;4.97;;;15.20;99.90;;;;;;6240172;23;20055;-84
2022/10/10 11:45:58;;;;;;;11.73;4.97;;;15.10;99.90;;;;;;6240502;22;20391;-83
2022/10/10 11:48:51;;;;;;;14.57;5.60;;;15.00;99.90;;;;;;6241705;22;20232;-88
2022/10/10 11:51:28;;;;;;;10.25;5.88;;;15.10;99.90;;;;;;6229506;23;20009;-85
2022/10/10 11:53:59;;;;;;;11.95;6.35;;;14.80;99.90;;;;;;6241194;22;20012;-86
2022/10/10 11:56:32;;;;;;;10.98;6.45;;;14.70;99.90;;;;;;6239905;23;20381;-86
2022/10/10 11:59:06;;;;;;;14.25;7.10;;;14.90;99.90;;;;;;6239553;23;20019;-86
2022/10/10 12:01:37;;;;;;;16.58;7.20;;;14.50;99.90;;;;;;6241277;22;20016;-86
2022/10/10 12:04:03;;;;;;;15.52;7.60;;;14.50;99.90;;;;;;6239679;23;20009;-86
2022/10/10 12:06:35;;;;;;;15.38;7.55;;;14.30;99.90;;;;;;6214224;23;20069;-86
2022/10/10 12:09:27;;;;;;;13.85;8.15;;;14.30;99.90;;;;;;6240618;23;20075;-86
2022/10/10 12:11:58;;;;;;;21.17;8.13;;;14.20;99.90;;;;;;6239685;23;20008;-85
2022/10/10 12:14:26;;;;;;;12.68;7.63;;;14.20;99.90;;;;;;6241435;22;20023;-86
2022/10/10 12:16:52;;;;;;;14.50;7.55;;;14.20;99.90;;;;;;6241098;22;20008;-84
2022/10/10 12:19:26;;;;;;;13.80;8.13;;;14.10;99.90;;;;;;6214629;23;20012;-90
2022/10/10 12:22:04;;;;;;;14.00;8.50;;;14.10;99.90;;;;;;6241339;22;20004;-85
2022/10/10 12:25:19;;;;;;;17.75;8.65;;;14.00;99.90;;;;;;6239041;23;20012;-86
2022/10/10 12:28:00;;;;;;;13.53;8.10;;;14.10;99.90;;;;;;6241319;22;20327;-86
2022/10/10 12:30:25;;;;;;;13.93;8.30;;;14.10;99.90;;;;;;6213430;23;20016;-85
2022/10/10 12:32:53;;;;;;;13.65;8.45;;;14.10;99.90;;;;;;6240989;22;20016;-84
2022/10/10 12:35:31;;;;;;;16.35;8.50;;;14.10;99.90;;;;;;6239548;23;20500;-85
2022/10/10 12:38:34;;;;;;;13.90;8.55;;;14.10;99.90;;;;;;6239535;23;20405;-86
2022/10/10 12:41:04;;;;;;;15.23;8.23;;;14.20;99.90;;;;;;6234770;23;20016;-85
2022/10/10 12:43:50;;;;;;;18.48;8.40;;;14.20;99.90;;;;;;6239441;23;20020;-86
2022/10/10 12:46:23;;;;;;;14.15;8.98;;;14.30;99.90;;;;;;6239098;23;20445;-86
2022/10/10 12:49:15;;;;;;;14.43;8.23;;;14.30;99.90;;;;;;6241715;22;20502;-85
2022/10/10 12:51:41;;;;;;;15.52;8.13;;;14.30;99.90;;;;;;6223276;23;20413;-85
2022/10/10 12:54:20;;;;;;;17.75;8.27;;;14.30;99.90;;;;;;6240102;23;20019;-85
2022/10/10 12:56:46;;;;;;;13.70;7.97;;;14.30;99.90;;;;;;6213964;23;20020;-85
2022/10/10 12:59:24;;;;;;;15.00;8.98;;;14.30;99.90;;;;;;6239950;23;20012;-85
2022/10/10 13:01:57;;;;;;;16.92;9.60;;;14.20;99.90;;;;;;6240796;22;20015;-85
2022/10/10 13:04:24;;;;;;;15.82;9.52;;;14.20;99.90;;;;;;6241742;22;20015;-86
2022/10/10 13:06:57;;;;;;;16.10;9.30;;;14.20;99.90;;;;;;6241565;22;20004;-85
2022/10/10 13:09:33;;;;;;;17.20;11.70;;;14.20;99.90;;;;;;6242109;22;20378;-85